Time;durP1;ratioP1;P1;durP2;ratioP2;P2;SDS_P1;SDS_P2;PMS_P1;PMS_P2;Temp;Humidity;BMP_temperature;BMP_pressure;BME280_temperature;BME280_humidity;BME280_pressure;Samples;Min_cycle;Max_cycle;Signal;HPM_P1;HPM_P2
2022/02/05 00:00:46;;;;;;;42.17;26.02;;;;;;;;;;749873;79;26370;-83
2022/02/05 00:01:52;;;;;;;43.95;26.50;;;;;;;;;;758756;78;26382;-86
2022/02/05 00:04:04;;;;;;;39.15;25.75;;;;;;;;;;750652;79;26265;-86
2022/02/05 00:05:03;;;;;;;40.80;26.82;;;;;;;;;;758718;78;26765;-86
2022/02/05 00:06:07;;;;;;;41.35;26.57;;;;;;;;;;750537;79;26312;-83
2022/02/05 00:07:10;;;;;;;45.55;27.98;;;;;;;;;;759462;78;26771;-83
2022/02/05 00:09:32;;;;;;;49.55;28.40;;;;;;;;;;759505;78;26265;-83
2022/02/05 00:10:59;;;;;;;45.23;28.50;;;;;;;;;;748586;78;26249;-84
2022/02/05 00:11:52;;;;;;;43.52;27.48;;;;;;;;;;768122;77;26260;-82
2022/02/05 00:15:37;;;;;;;45.17;28.57;;;;;;;;;;771902;77;26345;-86
2022/02/05 00:42:08;;;;;;;56.18;29.55;;;;;;;;;;764513;77;26384;-82
2022/02/05 00:42:59;;;;;;;48.35;31.20;;;;;;;;;;763370;77;26772;-84
2022/02/05 00:44:03;;;;;;;48.68;30.45;;;;;;;;;;761432;75;26284;-82
2022/02/05 00:45:10;;;;;;;51.53;30.70;;;;;;;;;;787549;75;26305;-83
2022/02/05 00:46:14;;;;;;;52.58;30.88;;;;;;;;;;792473;75;26246;-83
2022/02/05 00:47:17;;;;;;;49.95;30.70;;;;;;;;;;787162;75;26286;-83
2022/02/05 00:48:21;;;;;;;50.38;31.27;;;;;;;;;;791884;75;26297;-84
2022/02/05 00:49:23;;;;;;;53.83;30.70;;;;;;;;;;786855;75;26701;-84
2022/02/05 00:50:28;;;;;;;53.95;32.98;;;;;;;;;;792071;75;26749;-84
2022/02/05 00:51:43;;;;;;;52.45;31.25;;;;;;;;;;786946;75;26348;-83
2022/02/05 00:52:38;;;;;;;50.90;32.15;;;;;;;;;;790216;75;26310;-84
2022/02/05 00:53:43;;;;;;;52.65;30.40;;;;;;;;;;786896;75;26251;-83
2022/02/05 00:54:49;;;;;;;48.60;30.05;;;;;;;;;;786865;75;26242;-85
2022/02/05 00:55:57;;;;;;;54.85;31.42;;;;;;;;;;786879;75;26364;-86
2022/02/05 00:58:07;;;;;;;45.45;29.18;;;;;;;;;;791935;75;26254;-83
2022/02/05 00:59:09;;;;;;;47.70;30.02;;;;;;;;;;787000;75;26715;-83
2022/02/05 01:00:13;;;;;;;46.68;29.07;;;;;;;;;;792049;75;26255;-84
2022/02/05 01:01:16;;;;;;;48.45;29.50;;;;;;;;;;787018;75;26746;-82
2022/02/05 01:02:18;;;;;;;45.67;28.20;;;;;;;;;;792139;75;26296;-84
2022/02/05 01:03:21;;;;;;;46.25;28.45;;;;;;;;;;787126;75;26384;-83
2022/02/05 01:04:24;;;;;;;47.98;29.67;;;;;;;;;;787136;75;26418;-84
2022/02/05 01:05:27;;;;;;;48.08;28.35;;;;;;;;;;792212;75;26818;-82
2022/02/05 01:06:30;;;;;;;49.93;30.10;;;;;;;;;;787052;75;26239;-84
2022/02/05 01:07:32;;;;;;;50.30;30.60;;;;;;;;;;792135;75;26332;-84
2022/02/05 01:08:37;;;;;;;48.73;31.20;;;;;;;;;;787281;75;26313;-84
2022/02/05 01:09:41;;;;;;;47.75;30.00;;;;;;;;;;792217;75;26688;-83
2022/02/05 01:10:44;;;;;;;50.40;29.25;;;;;;;;;;787219;75;24388;-83
2022/02/05 01:11:47;;;;;;;46.28;29.00;;;;;;;;;;792310;75;26672;-83
2022/02/05 01:12:54;;;;;;;45.90;29.63;;;;;;;;;;787048;75;26297;-84
2022/02/05 01:13:57;;;;;;;42.35;28.40;;;;;;;;;;787258;74;24357;-85
2022/02/05 01:15:01;;;;;;;49.25;29.75;;;;;;;;;;787234;75;26246;-83
2022/02/05 01:16:12;;;;;;;45.88;28.92;;;;;;;;;;787275;75;26239;-83
2022/02/05 01:17:10;;;;;;;43.75;27.35;;;;;;;;;;786901;75;26231;-83
2022/02/05 01:18:14;;;;;;;45.92;29.42;;;;;;;;;;786980;75;26305;-83
2022/02/05 01:19:43;;;;;;;46.70;28.98;;;;;;;;;;787036;75;26234;-85
2022/02/05 01:21:50;;;;;;;51.00;28.83;;;;;;;;;;787011;75;26976;-83
2022/02/05 01:22:45;;;;;;;43.40;27.32;;;;;;;;;;790191;75;26296;-82
2022/02/05 01:24:00;;;;;;;47.98;28.95;;;;;;;;;;786943;75;26293;-83
2022/02/05 01:24:55;;;;;;;45.38;28.25;;;;;;;;;;790969;75;26300;-85
2022/02/05 01:26:08;;;;;;;44.95;28.20;;;;;;;;;;786992;75;26733;-83
2022/02/05 01:27:08;;;;;;;44.73;28.57;;;;;;;;;;786445;75;26665;-83
2022/02/05 01:28:17;;;;;;;44.63;27.65;;;;;;;;;;786795;75;26792;-84
2022/02/05 01:29:48;;;;;;;47.30;29.50;;;;;;;;;;791187;75;26312;-84
2022/02/05 01:30:29;;;;;;;48.08;30.57;;;;;;;;;;779750;75;26305;-82
2022/02/05 01:31:30;;;;;;;51.92;30.00;;;;;;;;;;790276;75;26685;-83
2022/02/05 01:32:32;;;;;;;49.33;30.08;;;;;;;;;;791771;75;26254;-82
2022/02/05 01:35:09;;;;;;;47.62;28.47;;;;;;;;;;786754;75;26724;-84
2022/02/05 01:54:36;;;;;;;35.38;23.83;;;;;;;;;;786680;75;26251;-84
2022/02/05 01:55:52;;;;;;;39.30;23.65;;;;;;;;;;783747;75;26266;-84
2022/02/05 01:56:55;;;;;;;31.30;21.52;;;;;;;;;;789848;75;26680;-85
2022/02/05 02:05:28;;;;;;;34.27;22.55;;;;;;;;;;758374;78;26272;-83
2022/02/05 02:11:35;;;;;;;32.53;22.60;;;;;;;;;;771778;77;26240;-83
2022/02/05 02:12:38;;;;;;;38.40;24.80;;;;;;;;;;769740;76;26762;-83
2022/02/05 02:15:04;;;;;;;38.00;24.00;;;;;;;;;;771779;77;26772;-82
2022/02/05 02:16:15;;;;;;;43.45;26.10;;;;;;;;;;771210;77;26236;-83
2022/02/05 02:18:31;;;;;;;39.15;24.55;;;;;;;;;;771872;77;24200;-84
2022/02/05 02:21:02;;;;;;;41.30;24.85;;;;;;;;;;749706;79;26324;-83
2022/02/05 02:22:09;;;;;;;38.05;24.75;;;;;;;;;;769567;76;26381;-81
2022/02/05 02:23:30;;;;;;;39.08;24.20;;;;;;;;;;757512;78;26369;-81
2022/02/05 02:25:11;;;;;;;37.98;23.95;;;;;;;;;;765374;76;26319;-82
2022/02/05 02:25:52;;;;;;;36.17;24.00;;;;;;;;;;734568;79;26350;-83
2022/02/05 02:27:06;;;;;;;38.63;23.38;;;;;;;;;;768228;77;26280;-84
2022/02/05 02:28:11;;;;;;;34.65;22.65;;;;;;;;;;770432;76;26251;-83
2022/02/05 02:29:22;;;;;;;32.70;23.65;;;;;;;;;;772152;76;26244;-83
2022/02/05 02:30:18;;;;;;;38.28;23.83;;;;;;;;;;771229;77;27139;-85
2022/02/05 02:31:24;;;;;;;35.38;21.80;;;;;;;;;;773059;77;26322;-82
2022/02/05 02:32:24;;;;;;;38.45;23.57;;;;;;;;;;772547;76;26244;-85
2022/02/05 02:33:33;;;;;;;32.55;21.73;;;;;;;;;;772807;77;26345;-85
2022/02/05 02:34:39;;;;;;;35.68;22.95;;;;;;;;;;771576;77;26726;-83
2022/02/05 02:35:43;;;;;;;34.70;23.90;;;;;;;;;;771131;77;26260;-84
2022/02/05 02:36:56;;;;;;;41.53;22.67;;;;;;;;;;771372;77;26862;-82
2022/02/05 02:38:58;;;;;;;31.25;21.35;;;;;;;;;;749445;79;26734;-83
2022/02/05 02:40:17;;;;;;;33.65;22.00;;;;;;;;;;757916;78;26312;-83
2022/02/05 02:41:22;;;;;;;35.75;21.65;;;;;;;;;;748639;78;26327;-82
2022/02/05 02:42:16;;;;;;;33.48;20.97;;;;;;;;;;770095;76;26309;-80
2022/02/05 02:43:24;;;;;;;33.08;22.05;;;;;;;;;;771855;77;26798;-81
2022/02/05 02:44:23;;;;;;;33.20;21.77;;;;;;;;;;771502;76;26299;-83
2022/02/05 02:45:26;;;;;;;34.83;21.75;;;;;;;;;;771954;77;26236;-84
2022/02/05 02:46:29;;;;;;;34.38;22.37;;;;;;;;;;771842;77;26312;-84
2022/02/05 02:47:31;;;;;;;32.98;21.40;;;;;;;;;;771757;77;26244;-83
2022/02/05 02:48:35;;;;;;;34.38;21.60;;;;;;;;;;771876;77;26311;-85
2022/02/05 02:49:59;;;;;;;30.08;21.15;;;;;;;;;;771943;77;26252;-82
2022/02/05 02:56:33;;;;;;;28.45;20.00;;;;;;;;;;771777;77;26315;-82
2022/02/05 02:57:34;;;;;;;29.52;19.48;;;;;;;;;;771193;76;26307;-85
2022/02/05 02:58:40;;;;;;;29.10;20.37;;;;;;;;;;771848;77;26306;-84
2022/02/05 02:59:50;;;;;;;35.95;21.97;;;;;;;;;;771547;77;26232;-85
2022/02/05 03:00:56;;;;;;;32.63;20.32;;;;;;;;;;771668;77;26703;-84
2022/02/05 03:02:07;;;;;;;30.65;20.32;;;;;;;;;;771376;77;26409;-84
2022/02/05 03:03:03;;;;;;;30.75;20.90;;;;;;;;;;770462;77;26355;-83
2022/02/05 03:04:06;;;;;;;35.00;22.35;;;;;;;;;;771873;77;26252;-84
2022/02/05 03:05:09;;;;;;;31.87;21.48;;;;;;;;;;771998;77;26353;-83
2022/02/05 03:06:12;;;;;;;31.15;21.48;;;;;;;;;;771821;77;26310;-83
2022/02/05 03:07:15;;;;;;;34.53;20.70;;;;;;;;;;771849;77;26713;-84
2022/02/05 03:08:17;;;;;;;39.75;22.60;;;;;;;;;;771836;77;26322;-84
2022/02/05 03:09:21;;;;;;;32.13;20.97;;;;;;;;;;771855;77;26248;-84
2022/02/05 03:10:24;;;;;;;36.95;22.45;;;;;;;;;;771982;77;26307;-84
2022/02/05 03:11:26;;;;;;;36.63;23.00;;;;;;;;;;771837;77;26702;-84
2022/02/05 03:12:29;;;;;;;38.95;25.10;;;;;;;;;;772102;77;26711;-84
2022/02/05 03:13:32;;;;;;;40.70;26.60;;;;;;;;;;771771;77;26267;-84
2022/02/05 03:14:35;;;;;;;38.70;24.57;;;;;;;;;;771464;77;26264;-83
2022/02/05 03:15:39;;;;;;;40.00;24.63;;;;;;;;;;771905;77;26306;-83
2022/02/05 03:16:48;;;;;;;41.08;23.75;;;;;;;;;;771801;77;26256;-87
2022/02/05 03:18:04;;;;;;;35.92;23.00;;;;;;;;;;771077;77;26244;-84
2022/02/05 03:19:09;;;;;;;33.70;23.42;;;;;;;;;;770911;77;26310;-83
2022/02/05 03:20:04;;;;;;;33.92;23.52;;;;;;;;;;770740;77;26322;-83
2022/02/05 03:21:07;;;;;;;32.23;22.32;;;;;;;;;;772024;77;26310;-83
2022/02/05 03:22:09;;;;;;;38.98;23.87;;;;;;;;;;771756;77;26811;-82
2022/02/05 03:23:12;;;;;;;31.27;20.88;;;;;;;;;;771835;77;26333;-84
2022/02/05 03:24:15;;;;;;;30.85;21.48;;;;;;;;;;771984;77;26752;-83
2022/02/05 03:25:18;;;;;;;34.18;21.97;;;;;;;;;;772065;77;26361;-82
2022/02/05 03:26:20;;;;;;;32.48;21.02;;;;;;;;;;771782;77;26313;-86
2022/02/05 03:27:23;;;;;;;31.23;21.62;;;;;;;;;;772129;77;24813;-84
2022/02/05 03:28:26;;;;;;;31.00;20.75;;;;;;;;;;771996;77;26298;-83
2022/02/05 03:29:28;;;;;;;29.90;19.70;;;;;;;;;;771943;77;26408;-83
2022/02/05 03:30:32;;;;;;;34.03;19.77;;;;;;;;;;771854;77;26252;-84
2022/02/05 03:31:35;;;;;;;28.87;20.20;;;;;;;;;;771725;77;26690;-83
2022/02/05 03:32:38;;;;;;;28.23;19.40;;;;;;;;;;771767;77;26287;-84
2022/02/05 03:33:41;;;;;;;32.00;21.25;;;;;;;;;;771710;77;26365;-83
2022/02/05 03:34:44;;;;;;;33.80;19.30;;;;;;;;;;771874;77;26248;-83
2022/02/05 03:35:46;;;;;;;27.25;18.65;;;;;;;;;;771829;77;26291;-82
2022/02/05 03:36:49;;;;;;;27.75;19.70;;;;;;;;;;771675;77;26702;-82
2022/02/05 03:37:52;;;;;;;29.95;20.55;;;;;;;;;;771643;77;26326;-85
2022/02/05 03:38:55;;;;;;;34.38;21.00;;;;;;;;;;776517;76;26709;-82
2022/02/05 03:39:57;;;;;;;36.85;22.15;;;;;;;;;;792073;75;26292;-83
2022/02/05 03:41:00;;;;;;;31.07;22.20;;;;;;;;;;791952;75;26692;-82
2022/02/05 03:42:03;;;;;;;39.42;23.77;;;;;;;;;;791925;75;26292;-83
2022/02/05 03:43:06;;;;;;;36.28;21.87;;;;;;;;;;792002;75;26697;-82
2022/02/05 03:44:08;;;;;;;35.33;23.00;;;;;;;;;;792077;75;24636;-82
2022/02/05 03:45:12;;;;;;;44.50;24.07;;;;;;;;;;791950;75;26325;-84
2022/02/05 03:46:15;;;;;;;33.10;21.77;;;;;;;;;;792160;75;26320;-82
2022/02/05 03:47:18;;;;;;;31.90;21.40;;;;;;;;;;791994;75;26305;-82
2022/02/05 03:48:20;;;;;;;32.35;21.68;;;;;;;;;;792104;75;26262;-84
2022/02/05 03:49:23;;;;;;;30.15;19.70;;;;;;;;;;792047;75;26251;-84
2022/02/05 03:50:26;;;;;;;26.68;18.12;;;;;;;;;;792108;75;26239;-82
2022/02/05 03:51:29;;;;;;;26.27;18.42;;;;;;;;;;792114;75;26238;-82
2022/02/05 03:52:31;;;;;;;27.35;18.55;;;;;;;;;;791919;75;26242;-83
2022/02/05 03:53:36;;;;;;;23.67;16.40;;;;;;;;;;791975;75;26339;-83
2022/02/05 03:54:38;;;;;;;29.60;17.07;;;;;;;;;;792115;75;26832;-82
2022/02/05 03:55:45;;;;;;;26.33;17.42;;;;;;;;;;791686;75;26348;-84
2022/02/05 03:56:46;;;;;;;30.10;18.40;;;;;;;;;;791843;75;26297;-83
2022/02/05 03:57:48;;;;;;;24.72;17.07;;;;;;;;;;791990;75;26293;-83
2022/02/05 03:58:51;;;;;;;28.42;18.80;;;;;;;;;;791869;75;26290;-85
2022/02/05 03:59:54;;;;;;;29.30;18.32;;;;;;;;;;792064;75;26968;-83
2022/02/05 04:00:56;;;;;;;29.40;18.20;;;;;;;;;;792101;74;26235;-84
2022/02/05 04:02:01;;;;;;;29.92;19.25;;;;;;;;;;792115;75;26301;-83
2022/02/05 04:03:03;;;;;;;25.95;18.10;;;;;;;;;;792050;75;26304;-84
2022/02/05 04:04:06;;;;;;;27.55;18.67;;;;;;;;;;792020;75;26692;-83
2022/02/05 04:05:09;;;;;;;27.35;18.98;;;;;;;;;;791932;75;26734;-83
2022/02/05 04:06:12;;;;;;;27.50;17.60;;;;;;;;;;792057;75;26246;-83
2022/02/05 04:07:14;;;;;;;29.52;18.15;;;;;;;;;;792054;75;26300;-83
2022/02/05 04:08:17;;;;;;;26.30;19.12;;;;;;;;;;792108;75;26250;-84
2022/02/05 04:09:26;;;;;;;29.65;18.73;;;;;;;;;;791985;75;26243;-82
2022/02/05 04:10:29;;;;;;;26.15;17.95;;;;;;;;;;791744;75;26317;-83
2022/02/05 04:16:52;;;;;;;26.77;18.07;;;;;;;;;;791992;75;24318;-83
2022/02/05 04:17:55;;;;;;;34.88;19.62;;;;;;;;;;792082;75;26243;-83
2022/02/05 04:18:57;;;;;;;32.70;20.72;;;;;;;;;;792146;75;26308;-84
2022/02/05 04:20:00;;;;;;;38.92;21.87;;;;;;;;;;792067;75;26243;-84
2022/02/05 04:21:04;;;;;;;35.90;22.80;;;;;;;;;;791883;75;26309;-84
2022/02/05 04:22:07;;;;;;;34.67;25.15;;;;;;;;;;791978;75;26254;-83
2022/02/05 04:23:10;;;;;;;46.58;27.55;;;;;;;;;;792060;75;26293;-84
2022/02/05 04:24:13;;;;;;;46.75;29.20;;;;;;;;;;792094;75;26417;-82
2022/02/05 04:25:16;;;;;;;50.48;28.10;;;;;;;;;;792005;75;26297;-85
2022/02/05 04:26:19;;;;;;;39.50;24.43;;;;;;;;;;791850;75;26259;-83
2022/02/05 04:27:22;;;;;;;38.38;23.05;;;;;;;;;;791914;75;26318;-83
2022/02/05 04:28:24;;;;;;;41.13;24.40;;;;;;;;;;792046;75;26673;-83
2022/02/05 04:29:27;;;;;;;44.20;25.65;;;;;;;;;;791935;75;26296;-83
2022/02/05 04:30:30;;;;;;;39.42;27.05;;;;;;;;;;791921;75;26578;-85
2022/02/05 04:31:32;;;;;;;48.68;32.63;;;;;;;;;;791722;75;26270;-85
2022/02/05 04:32:35;;;;;;;55.88;33.88;;;;;;;;;;791911;75;26282;-86
2022/02/05 04:33:38;;;;;;;54.35;34.98;;;;;;;;;;792006;75;26246;-82
2022/02/05 04:34:41;;;;;;;63.38;39.00;;;;;;;;;;792023;75;26306;-83
2022/02/05 04:35:45;;;;;;;68.83;41.28;;;;;;;;;;791815;75;26258;-84
2022/02/05 04:36:48;;;;;;;79.03;46.50;;;;;;;;;;792002;75;26795;-87
2022/02/05 04:39:28;;;;;;;93.20;50.48;;;;;;;;;;776201;76;26349;-83
2022/02/05 04:40:54;;;;;;;86.80;48.83;;;;;;;;;;785687;74;26250;-83
2022/02/05 04:42:11;;;;;;;94.42;50.33;;;;;;;;;;796264;74;26242;-83
2022/02/05 04:45:37;;;;;;;83.78;49.65;;;;;;;;;;796074;74;26687;-83
2022/02/05 04:49:27;;;;;;;80.17;45.85;;;;;;;;;;796070;74;26247;-82
2022/02/05 04:51:48;;;;;;;79.27;42.55;;;;;;;;;;796060;74;26238;-83
2022/02/05 04:55:24;;;;;;;68.10;40.30;;;;;;;;;;796112;74;26319;-83
2022/02/05 04:56:21;;;;;;;67.62;41.45;;;;;;;;;;792989;74;26281;-83
2022/02/05 04:57:36;;;;;;;71.30;43.00;;;;;;;;;;794676;74;26304;-84
2022/02/05 05:03:31;;;;;;;56.70;34.65;;;;;;;;;;780210;76;26257;-82
2022/02/05 05:04:32;;;;;;;54.67;34.90;;;;;;;;;;775432;76;26334;-82
2022/02/05 05:07:44;;;;;;;61.70;35.35;;;;;;;;;;780439;76;26260;-83
2022/02/05 05:09:22;;;;;;;68.67;40.28;;;;;;;;;;761013;77;26804;-83
2022/02/05 05:10:41;;;;;;;64.25;39.30;;;;;;;;;;747015;79;26295;-83
2022/02/05 05:11:50;;;;;;;69.58;40.45;;;;;;;;;;750275;79;26320;-83
2022/02/05 05:15:28;;;;;;;60.25;37.42;;;;;;;;;;765583;77;26350;-83
2022/02/05 05:19:28;;;;;;;65.65;39.95;;;;;;;;;;765568;77;26739;-82
2022/02/05 05:20:20;;;;;;;65.45;40.03;;;;;;;;;;762834;77;26846;-82
2022/02/05 05:21:22;;;;;;;66.92;40.40;;;;;;;;;;765689;77;26335;-82
2022/02/05 05:22:25;;;;;;;65.57;40.73;;;;;;;;;;765701;77;26273;-84
2022/02/05 05:23:28;;;;;;;70.22;41.63;;;;;;;;;;765587;77;26805;-83
2022/02/05 05:24:31;;;;;;;72.08;41.15;;;;;;;;;;765491;77;26715;-84
2022/02/05 05:25:33;;;;;;;72.10;42.38;;;;;;;;;;765767;77;26369;-82
2022/02/05 05:26:37;;;;;;;70.03;40.80;;;;;;;;;;765629;77;26277;-82
2022/02/05 05:27:40;;;;;;;74.03;42.78;;;;;;;;;;765769;77;24206;-84
2022/02/05 05:28:43;;;;;;;67.08;40.90;;;;;;;;;;765693;77;26328;-84
2022/02/05 05:29:45;;;;;;;69.77;40.12;;;;;;;;;;765489;77;26331;-84
2022/02/05 05:30:48;;;;;;;72.17;42.23;;;;;;;;;;766001;77;26322;-81
2022/02/05 05:31:51;;;;;;;62.40;39.95;;;;;;;;;;766200;77;26686;-81
2022/02/05 05:32:54;;;;;;;75.40;41.63;;;;;;;;;;752818;79;26321;-81
2022/02/05 05:33:57;;;;;;;61.88;37.78;;;;;;;;;;765867;77;26707;-80
2022/02/05 05:34:59;;;;;;;62.50;36.10;;;;;;;;;;765587;77;26334;-80
2022/02/05 05:36:02;;;;;;;67.35;38.35;;;;;;;;;;765728;77;24222;-83
2022/02/05 05:37:05;;;;;;;61.92;38.02;;;;;;;;;;752710;79;26756;-81
2022/02/05 05:38:08;;;;;;;55.28;35.03;;;;;;;;;;765733;77;26316;-81
2022/02/05 05:39:12;;;;;;;48.87;33.30;;;;;;;;;;765713;77;26281;-81
2022/02/05 05:40:15;;;;;;;43.68;30.85;;;;;;;;;;763623;77;26327;-82
2022/02/05 05:41:18;;;;;;;50.55;30.08;;;;;;;;;;761290;77;26364;-80
2022/02/05 05:42:30;;;;;;;46.70;30.90;;;;;;;;;;761531;78;26324;-82
2022/02/05 05:43:48;;;;;;;44.03;29.82;;;;;;;;;;748288;78;26441;-81
2022/02/05 05:44:50;;;;;;;48.55;30.05;;;;;;;;;;753633;77;26766;-82
2022/02/05 05:46:01;;;;;;;50.60;32.90;;;;;;;;;;756571;78;26269;-81
2022/02/05 05:46:48;;;;;;;52.25;31.02;;;;;;;;;;756478;78;26324;-80
2022/02/05 05:49:17;;;;;;;53.73;34.23;;;;;;;;;;752159;79;26358;-82
2022/02/05 05:51:39;;;;;;;57.93;33.92;;;;;;;;;;750327;79;24284;-80
2022/02/05 05:52:42;;;;;;;46.92;31.62;;;;;;;;;;750504;79;26378;-81
2022/02/05 05:53:45;;;;;;;49.67;32.93;;;;;;;;;;750781;79;26723;-82
2022/02/05 05:54:48;;;;;;;50.85;32.00;;;;;;;;;;751049;79;26276;-81
2022/02/05 05:55:50;;;;;;;52.23;32.17;;;;;;;;;;750619;79;26314;-80
2022/02/05 05:56:53;;;;;;;50.58;32.40;;;;;;;;;;750503;79;24765;-82
2022/02/05 05:57:56;;;;;;;48.30;31.40;;;;;;;;;;750485;79;26280;-81
2022/02/05 05:58:59;;;;;;;54.35;30.43;;;;;;;;;;750614;79;26373;-81
2022/02/05 06:00:01;;;;;;;48.00;31.48;;;;;;;;;;750518;79;26726;-82
2022/02/05 06:01:04;;;;;;;50.75;31.02;;;;;;;;;;750280;79;27010;-83
2022/02/05 06:02:08;;;;;;;50.55;31.35;;;;;;;;;;750482;79;26269;-86
2022/02/05 06:03:11;;;;;;;49.03;31.57;;;;;;;;;;750398;79;26393;-83
2022/02/05 06:04:13;;;;;;;54.53;34.08;;;;;;;;;;750757;79;26350;-81
2022/02/05 06:05:16;;;;;;;54.25;35.85;;;;;;;;;;750742;79;26812;-81
2022/02/05 06:06:19;;;;;;;57.95;37.50;;;;;;;;;;750781;79;26284;-82
2022/02/05 06:07:21;;;;;;;55.50;36.55;;;;;;;;;;750594;79;26884;-80
2022/02/05 06:08:24;;;;;;;66.50;41.23;;;;;;;;;;750724;79;26305;-84
2022/02/05 06:09:27;;;;;;;66.42;40.98;;;;;;;;;;750888;79;26276;-79
2022/02/05 06:10:29;;;;;;;63.42;39.30;;;;;;;;;;750865;79;26281;-83
2022/02/05 06:11:32;;;;;;;74.17;40.03;;;;;;;;;;750518;79;24678;-80
2022/02/05 06:12:35;;;;;;;63.25;41.02;;;;;;;;;;750454;79;26746;-86
2022/02/05 06:13:38;;;;;;;64.77;39.58;;;;;;;;;;750316;79;26327;-81
2022/02/05 06:14:41;;;;;;;72.40;40.95;;;;;;;;;;750446;79;26844;-80
2022/02/05 06:15:47;;;;;;;64.70;40.08;;;;;;;;;;749627;79;26324;-83
2022/02/05 06:16:56;;;;;;;61.55;37.73;;;;;;;;;;750647;79;26792;-81
2022/02/05 06:17:54;;;;;;;59.38;36.48;;;;;;;;;;749295;79;26315;-79
2022/02/05 06:18:57;;;;;;;64.90;39.40;;;;;;;;;;750441;79;26792;-80
2022/02/05 06:20:00;;;;;;;62.98;38.65;;;;;;;;;;750122;79;26451;-79
2022/02/05 06:21:02;;;;;;;70.57;40.00;;;;;;;;;;750228;79;26310;-80
2022/02/05 06:22:05;;;;;;;62.43;39.03;;;;;;;;;;750315;79;26781;-81
2022/02/05 06:23:08;;;;;;;66.87;38.08;;;;;;;;;;750398;79;26292;-81
2022/02/05 06:24:11;;;;;;;59.58;38.38;;;;;;;;;;750314;79;26292;-83
2022/02/05 06:25:13;;;;;;;65.37;39.33;;;;;;;;;;750209;79;26370;-82
2022/02/05 06:26:16;;;;;;;61.70;37.80;;;;;;;;;;750544;79;26284;-83
2022/02/05 06:27:19;;;;;;;61.13;38.92;;;;;;;;;;750483;79;26729;-84
2022/02/05 06:28:21;;;;;;;63.38;38.98;;;;;;;;;;750407;79;26397;-81
2022/02/05 06:29:24;;;;;;;56.42;38.65;;;;;;;;;;750331;79;26328;-82
2022/02/05 06:30:27;;;;;;;54.80;37.50;;;;;;;;;;749861;79;26347;-81
2022/02/05 06:31:31;;;;;;;52.60;36.10;;;;;;;;;;750453;79;26387;-82
2022/02/05 06:32:33;;;;;;;59.27;38.25;;;;;;;;;;750555;79;26780;-80
2022/02/05 06:33:36;;;;;;;51.55;36.30;;;;;;;;;;750372;79;26394;-82
2022/02/05 06:34:39;;;;;;;58.75;38.30;;;;;;;;;;750378;79;26521;-83
2022/02/05 06:35:41;;;;;;;56.75;37.60;;;;;;;;;;750490;79;26320;-82
2022/02/05 06:36:44;;;;;;;60.03;37.65;;;;;;;;;;750516;79;26367;-83
2022/02/05 06:37:47;;;;;;;59.90;39.58;;;;;;;;;;750622;79;26335;-82
2022/02/05 06:38:49;;;;;;;63.52;39.13;;;;;;;;;;750594;79;24675;-79
2022/02/05 06:39:52;;;;;;;57.88;38.92;;;;;;;;;;750594;79;26284;-81
2022/02/05 06:40:55;;;;;;;62.95;40.23;;;;;;;;;;750149;77;26344;-79
2022/02/05 06:41:57;;;;;;;67.55;42.10;;;;;;;;;;748529;79;26754;-81
2022/02/05 06:43:00;;;;;;;66.72;43.83;;;;;;;;;;748632;79;26682;-81
2022/02/05 06:44:03;;;;;;;69.27;45.23;;;;;;;;;;748587;79;26314;-80
2022/02/05 06:45:06;;;;;;;75.08;47.55;;;;;;;;;;748590;79;26716;-79
2022/02/05 06:46:08;;;;;;;78.37;46.85;;;;;;;;;;748608;79;26339;-79
2022/02/05 06:47:13;;;;;;;78.75;51.40;;;;;;;;;;748040;79;26740;-76
2022/02/05 06:48:16;;;;;;;88.45;52.98;;;;;;;;;;748471;79;26259;-76
2022/02/05 06:49:19;;;;;;;84.85;52.23;;;;;;;;;;748530;79;26318;-80
2022/02/05 06:50:22;;;;;;;83.33;51.55;;;;;;;;;;748319;79;26313;-79
2022/02/05 06:51:25;;;;;;;78.57;51.10;;;;;;;;;;748594;79;26372;-78
2022/02/05 06:52:28;;;;;;;80.62;50.30;;;;;;;;;;748569;79;26335;-79
2022/02/05 06:53:30;;;;;;;81.82;50.30;;;;;;;;;;748542;79;26262;-81
2022/02/05 06:54:33;;;;;;;84.22;50.95;;;;;;;;;;748639;79;26372;-82
2022/02/05 06:55:36;;;;;;;86.02;50.73;;;;;;;;;;748596;79;26313;-79
2022/02/05 06:56:38;;;;;;;82.35;50.65;;;;;;;;;;748544;79;26994;-80
2022/02/05 06:57:41;;;;;;;80.85;51.05;;;;;;;;;;748615;79;26278;-83
2022/02/05 06:58:44;;;;;;;77.08;50.28;;;;;;;;;;748582;79;26271;-81
2022/02/05 06:59:47;;;;;;;84.03;51.40;;;;;;;;;;748372;79;24737;-83
2022/02/05 07:00:49;;;;;;;83.45;52.65;;;;;;;;;;748509;79;26302;-79
2022/02/05 07:01:54;;;;;;;86.92;51.28;;;;;;;;;;748264;78;26286;-79
2022/02/05 07:02:58;;;;;;;78.55;49.83;;;;;;;;;;748512;79;27138;-83
2022/02/05 07:04:00;;;;;;;77.50;52.60;;;;;;;;;;748477;78;26297;-83
2022/02/05 07:05:03;;;;;;;83.67;52.93;;;;;;;;;;748563;79;26263;-80
2022/02/05 07:06:06;;;;;;;76.53;49.25;;;;;;;;;;748542;79;26267;-83
2022/02/05 07:07:09;;;;;;;77.47;50.52;;;;;;;;;;748592;79;26739;-80
2022/02/05 07:08:12;;;;;;;78.00;51.92;;;;;;;;;;748546;79;26274;-80
2022/02/05 07:09:14;;;;;;;73.40;50.33;;;;;;;;;;748580;79;26382;-78
2022/02/05 07:10:17;;;;;;;77.22;52.00;;;;;;;;;;748541;79;26723;-80
2022/02/05 07:11:21;;;;;;;78.92;52.05;;;;;;;;;;748518;79;26340;-79
2022/02/05 07:12:24;;;;;;;74.70;50.90;;;;;;;;;;748578;79;26270;-78
2022/02/05 07:13:26;;;;;;;73.02;50.25;;;;;;;;;;748388;79;26410;-78
2022/02/05 07:14:41;;;;;;;70.30;47.45;;;;;;;;;;748278;79;26356;-84
2022/02/05 07:15:40;;;;;;;68.37;46.85;;;;;;;;;;746200;79;26783;-77
2022/02/05 07:16:47;;;;;;;64.42;45.20;;;;;;;;;;748307;78;26302;-79
2022/02/05 07:18:03;;;;;;;70.52;45.43;;;;;;;;;;738494;80;26346;-79
2022/02/05 07:19:19;;;;;;;73.47;47.27;;;;;;;;;;748938;78;26391;-79
2022/02/05 07:20:21;;;;;;;66.90;48.28;;;;;;;;;;748899;79;26230;-78
2022/02/05 07:21:16;;;;;;;68.22;47.13;;;;;;;;;;749383;79;26320;-79
2022/02/05 07:22:15;;;;;;;77.58;50.35;;;;;;;;;;748158;79;26431;-80
2022/02/05 07:24:39;;;;;;;72.60;51.88;;;;;;;;;;748617;79;26428;-80
2022/02/05 07:29:35;;;;;;;77.20;48.30;;;;;;;;;;752024;78;26285;-81
2022/02/05 07:30:38;;;;;;;71.25;48.95;;;;;;;;;;751841;78;26309;-83
2022/02/05 07:31:50;;;;;;;77.95;53.33;;;;;;;;;;752690;79;26266;-82
2022/02/05 07:32:53;;;;;;;78.35;52.93;;;;;;;;;;752561;78;26281;-81
2022/02/05 07:33:56;;;;;;;81.10;53.78;;;;;;;;;;752714;78;26312;-82
2022/02/05 07:34:58;;;;;;;82.47;54.98;;;;;;;;;;751985;79;26329;-81
2022/02/05 07:36:01;;;;;;;74.32;52.10;;;;;;;;;;752777;78;26258;-81
2022/02/05 07:37:04;;;;;;;78.57;55.00;;;;;;;;;;751982;79;26735;-82
2022/02/05 07:38:07;;;;;;;79.50;54.95;;;;;;;;;;752752;78;26297;-81
2022/02/05 07:39:10;;;;;;;90.45;59.10;;;;;;;;;;752791;79;26802;-83
2022/02/05 07:40:14;;;;;;;86.57;58.00;;;;;;;;;;752767;78;26358;-81
2022/02/05 07:41:17;;;;;;;84.75;58.63;;;;;;;;;;752778;78;26290;-81
2022/02/05 07:42:20;;;;;;;80.30;56.85;;;;;;;;;;758599;77;26359;-80
2022/02/05 07:43:24;;;;;;;73.35;53.92;;;;;;;;;;761192;77;26359;-80
2022/02/05 07:44:27;;;;;;;77.70;55.52;;;;;;;;;;760998;77;26269;-81
2022/02/05 07:45:29;;;;;;;75.78;53.58;;;;;;;;;;761301;77;26274;-82
2022/02/05 07:46:32;;;;;;;80.55;55.00;;;;;;;;;;761257;77;26332;-81
2022/02/05 07:47:35;;;;;;;67.50;51.75;;;;;;;;;;761297;77;26342;-82
2022/02/05 07:48:38;;;;;;;81.28;54.67;;;;;;;;;;761257;77;26734;-81
2022/02/05 07:49:41;;;;;;;73.45;52.78;;;;;;;;;;761164;77;26380;-80
2022/02/05 07:50:44;;;;;;;76.87;54.20;;;;;;;;;;761263;78;26315;-81
2022/02/05 07:51:47;;;;;;;74.30;54.00;;;;;;;;;;761258;77;26305;-83
2022/02/05 07:52:50;;;;;;;83.00;56.08;;;;;;;;;;761347;78;26363;-80
2022/02/05 07:53:52;;;;;;;85.05;56.33;;;;;;;;;;761306;77;26265;-80
2022/02/05 07:54:55;;;;;;;82.17;57.95;;;;;;;;;;761296;77;26395;-80
2022/02/05 07:55:58;;;;;;;87.70;58.45;;;;;;;;;;752160;79;26308;-82
2022/02/05 07:57:01;;;;;;;92.65;58.50;;;;;;;;;;751915;79;26519;-80
2022/02/05 07:58:04;;;;;;;81.60;57.60;;;;;;;;;;751954;79;26348;-81
2022/02/05 07:59:06;;;;;;;82.50;57.53;;;;;;;;;;752296;79;26320;-81
2022/02/05 08:00:09;;;;;;;87.85;58.20;;;;;;;;;;751785;79;26724;-79
2022/02/05 08:01:12;;;;;;;79.53;57.27;;;;;;;;;;752061;79;26254;-80
2022/02/05 08:02:15;;;;;;;75.72;56.30;;;;;;;;;;751943;79;26294;-78
2022/02/05 08:03:17;;;;;;;83.00;56.50;;;;;;;;;;752044;79;26347;-82
2022/02/05 08:04:20;;;;;;;79.70;55.52;;;;;;;;;;751912;79;26258;-79
2022/02/05 08:05:23;;;;;;;74.90;55.08;;;;;;;;;;751917;79;26258;-82
2022/02/05 08:06:26;;;;;;;81.90;56.68;;;;;;;;;;752105;79;26343;-80
2022/02/05 08:07:28;;;;;;;84.92;56.35;;;;;;;;;;751980;78;26706;-80
2022/02/05 08:08:34;;;;;;;79.30;56.60;;;;;;;;;;751834;79;26413;-80
2022/02/05 08:09:52;;;;;;;74.17;53.33;;;;;;;;;;751867;79;26297;-82
2022/02/05 08:10:55;;;;;;;86.82;56.05;;;;;;;;;;750267;79;26262;-79